sensor_id;sensor_type;location;lat;lon;timestamp;P1;durP1;ratioP1;P2;durP2;ratioP2
22713;SDS011;11524;50.846;4.326;2023-02-15T00:01:42;16.92;;;12.75;;
22713;SDS011;11524;50.846;4.326;2023-02-15T00:04:09;15.35;;;10.85;;
22713;SDS011;11524;50.846;4.326;2023-02-15T00:06:37;16.33;;;12.07;;
22713;SDS011;11524;50.846;4.326;2023-02-15T00:09:02;22.15;;;11.73;;
22713;SDS011;11524;50.846;4.326;2023-02-15T00:11:28;18.20;;;13.35;;
22713;SDS011;11524;50.846;4.326;2023-02-15T00:14:12;15.65;;;11.68;;
22713;SDS011;11524;50.846;4.326;2023-02-15T00:16:45;15.65;;;11.15;;
22713;SDS011;11524;50.846;4.326;2023-02-15T00:19:12;17.27;;;11.77;;
22713;SDS011;11524;50.846;4.326;2023-02-15T00:21:39;16.95;;;12.23;;
22713;SDS011;11524;50.846;4.326;2023-02-15T00:24:06;14.15;;;11.13;;
22713;SDS011;11524;50.846;4.326;2023-02-15T00:26:33;13.77;;;10.80;;
22713;SDS011;11524;50.846;4.326;2023-02-15T00:28:59;15.15;;;11.07;;
22713;SDS011;11524;50.846;4.326;2023-02-15T00:31:30;16.35;;;11.88;;
22713;SDS011;11524;50.846;4.326;2023-02-15T00:34:03;16.40;;;12.25;;
22713;SDS011;11524;50.846;4.326;2023-02-15T00:36:42;15.52;;;12.05;;
22713;SDS011;11524;50.846;4.326;2023-02-15T00:39:08;15.52;;;11.70;;
22713;SDS011;11524;50.846;4.326;2023-02-15T00:41:38;15.52;;;11.15;;
22713;SDS011;11524;50.846;4.326;2023-02-15T00:44:11;16.95;;;11.32;;
22713;SDS011;11524;50.846;4.326;2023-02-15T00:46:37;16.17;;;12.48;;
22713;SDS011;11524;50.846;4.326;2023-02-15T00:49:03;14.70;;;10.77;;
22713;SDS011;11524;50.846;4.326;2023-02-15T00:51:29;12.30;;;10.25;;
22713;SDS011;11524;50.846;4.326;2023-02-15T00:53:55;12.80;;;10.57;;
22713;SDS011;11524;50.846;4.326;2023-02-15T00:56:21;14.05;;;10.68;;
22713;SDS011;11524;50.846;4.326;2023-02-15T00:58:47;15.10;;;12.00;;
22713;SDS011;11524;50.846;4.326;2023-02-15T01:01:13;17.05;;;12.52;;
22713;SDS011;11524;50.846;4.326;2023-02-15T01:03:43;15.57;;;11.18;;
22713;SDS011;11524;50.846;4.326;2023-02-15T01:06:11;15.68;;;11.95;;
22713;SDS011;11524;50.846;4.326;2023-02-15T01:08:38;16.73;;;12.82;;
22713;SDS011;11524;50.846;4.326;2023-02-15T01:11:05;14.73;;;10.48;;
22713;SDS011;11524;50.846;4.326;2023-02-15T01:13:32;15.13;;;11.40;;
22713;SDS011;11524;50.846;4.326;2023-02-15T01:15:58;15.57;;;11.20;;
22713;SDS011;11524;50.846;4.326;2023-02-15T01:18:24;17.05;;;11.63;;
22713;SDS011;11524;50.846;4.326;2023-02-15T01:20:49;14.25;;;11.20;;
22713;SDS011;11524;50.846;4.326;2023-02-15T01:23:15;13.82;;;10.98;;
22713;SDS011;11524;50.846;4.326;2023-02-15T01:25:41;13.00;;;9.65;;
22713;SDS011;11524;50.846;4.326;2023-02-15T01:28:06;15.70;;;11.75;;
22713;SDS011;11524;50.846;4.326;2023-02-15T01:30:32;15.73;;;11.38;;
22713;SDS011;11524;50.846;4.326;2023-02-15T01:32:58;15.77;;;11.57;;
22713;SDS011;11524;50.846;4.326;2023-02-15T01:35:26;17.08;;;12.50;;
22713;SDS011;11524;50.846;4.326;2023-02-15T01:37:52;18.48;;;13.27;;
22713;SDS011;11524;50.846;4.326;2023-02-15T01:40:18;15.75;;;12.30;;
22713;SDS011;11524;50.846;4.326;2023-02-15T01:42:44;15.45;;;12.68;;
22713;SDS011;11524;50.846;4.326;2023-02-15T01:45:30;13.48;;;11.00;;
22713;SDS011;11524;50.846;4.326;2023-02-15T01:48:01;15.65;;;11.82;;
22713;SDS011;11524;50.846;4.326;2023-02-15T01:50:35;18.80;;;12.70;;
22713;SDS011;11524;50.846;4.326;2023-02-15T01:56:03;16.88;;;13.20;;
22713;SDS011;11524;50.846;4.326;2023-02-15T01:58:34;16.48;;;11.88;;
22713;SDS011;11524;50.846;4.326;2023-02-15T02:01:01;18.92;;;13.35;;
22713;SDS011;11524;50.846;4.326;2023-02-15T02:06:18;17.35;;;12.68;;
22713;SDS011;11524;50.846;4.326;2023-02-15T02:08:45;19.98;;;14.73;;
22713;SDS011;11524;50.846;4.326;2023-02-15T02:11:13;17.33;;;13.50;;
22713;SDS011;11524;50.846;4.326;2023-02-15T02:13:40;21.38;;;15.07;;
22713;SDS011;11524;50.846;4.326;2023-02-15T02:19:04;22.77;;;15.23;;
22713;SDS011;11524;50.846;4.326;2023-02-15T02:24:57;19.92;;;15.38;;
22713;SDS011;11524;50.846;4.326;2023-02-15T02:27:48;20.05;;;14.27;;
22713;SDS011;11524;50.846;4.326;2023-02-15T02:33:49;17.83;;;13.95;;
22713;SDS011;11524;50.846;4.326;2023-02-15T02:42:11;17.42;;;12.88;;
22713;SDS011;11524;50.846;4.326;2023-02-15T02:44:41;19.00;;;13.68;;
22713;SDS011;11524;50.846;4.326;2023-02-15T02:47:10;18.67;;;13.55;;
22713;SDS011;11524;50.846;4.326;2023-02-15T02:50:05;20.55;;;15.82;;
22713;SDS011;11524;50.846;4.326;2023-02-15T02:52:36;21.13;;;15.85;;
22713;SDS011;11524;50.846;4.326;2023-02-15T02:55:07;17.75;;;13.13;;
22713;SDS011;11524;50.846;4.326;2023-02-15T02:58:02;21.52;;;15.57;;
22713;SDS011;11524;50.846;4.326;2023-02-15T03:00:29;18.58;;;14.80;;
22713;SDS011;11524;50.846;4.326;2023-02-15T03:03:03;19.25;;;14.32;;
22713;SDS011;11524;50.846;4.326;2023-02-15T03:05:41;22.90;;;16.40;;
22713;SDS011;11524;50.846;4.326;2023-02-15T03:08:09;16.70;;;12.65;;
22713;SDS011;11524;50.846;4.326;2023-02-15T03:10:38;21.23;;;16.30;;
22713;SDS011;11524;50.846;4.326;2023-02-15T03:13:05;22.38;;;14.77;;
22713;SDS011;11524;50.846;4.326;2023-02-15T03:15:34;19.45;;;14.60;;
22713;SDS011;11524;50.846;4.326;2023-02-15T03:18:26;20.50;;;15.68;;
22713;SDS011;11524;50.846;4.326;2023-02-15T03:20:58;18.92;;;14.23;;
22713;SDS011;11524;50.846;4.326;2023-02-15T03:23:26;18.20;;;14.52;;
22713;SDS011;11524;50.846;4.326;2023-02-15T03:25:58;19.90;;;15.55;;
22713;SDS011;11524;50.846;4.326;2023-02-15T03:28:36;22.02;;;15.45;;
22713;SDS011;11524;50.846;4.326;2023-02-15T03:31:10;16.27;;;12.73;;
22713;SDS011;11524;50.846;4.326;2023-02-15T03:33:40;21.00;;;16.63;;
22713;SDS011;11524;50.846;4.326;2023-02-15T03:36:15;21.75;;;16.10;;
22713;SDS011;11524;50.846;4.326;2023-02-15T03:38:57;19.77;;;15.32;;
22713;SDS011;11524;50.846;4.326;2023-02-15T03:41:46;21.10;;;15.43;;
22713;SDS011;11524;50.846;4.326;2023-02-15T03:44:37;24.73;;;17.08;;
22713;SDS011;11524;50.846;4.326;2023-02-15T03:47:19;22.80;;;16.35;;
22713;SDS011;11524;50.846;4.326;2023-02-15T03:52:17;22.23;;;16.25;;
22713;SDS011;11524;50.846;4.326;2023-02-15T03:54:44;21.42;;;16.48;;
22713;SDS011;11524;50.846;4.326;2023-02-15T03:57:14;20.60;;;15.93;;
22713;SDS011;11524;50.846;4.326;2023-02-15T03:59:59;20.40;;;15.07;;
22713;SDS011;11524;50.846;4.326;2023-02-15T04:05:45;22.13;;;16.35;;
22713;SDS011;11524;50.846;4.326;2023-02-15T04:08:11;22.00;;;16.30;;
22713;SDS011;11524;50.846;4.326;2023-02-15T04:10:37;20.67;;;16.38;;
22713;SDS011;11524;50.846;4.326;2023-02-15T04:13:29;19.67;;;14.98;;
22713;SDS011;11524;50.846;4.326;2023-02-15T04:15:56;20.10;;;14.90;;
22713;SDS011;11524;50.846;4.326;2023-02-15T04:18:27;21.58;;;15.23;;
22713;SDS011;11524;50.846;4.326;2023-02-15T04:21:12;21.27;;;16.33;;
22713;SDS011;11524;50.846;4.326;2023-02-15T04:23:56;21.65;;;16.33;;
22713;SDS011;11524;50.846;4.326;2023-02-15T04:29:05;20.10;;;15.10;;
22713;SDS011;11524;50.846;4.326;2023-02-15T04:31:31;20.80;;;16.05;;
22713;SDS011;11524;50.846;4.326;2023-02-15T04:33:57;22.00;;;15.43;;
22713;SDS011;11524;50.846;4.326;2023-02-15T04:36:22;20.33;;;15.40;;
22713;SDS011;11524;50.846;4.326;2023-02-15T04:38:48;19.60;;;14.98;;
22713;SDS011;11524;50.846;4.326;2023-02-15T04:41:13;19.63;;;15.13;;
22713;SDS011;11524;50.846;4.326;2023-02-15T04:43:39;17.17;;;13.93;;
22713;SDS011;11524;50.846;4.326;2023-02-15T04:46:04;21.83;;;15.23;;
22713;SDS011;11524;50.846;4.326;2023-02-15T04:48:30;18.52;;;14.13;;
22713;SDS011;11524;50.846;4.326;2023-02-15T04:50:55;20.38;;;15.68;;
22713;SDS011;11524;50.846;4.326;2023-02-15T04:53:21;20.45;;;15.45;;
22713;SDS011;11524;50.846;4.326;2023-02-15T04:55:47;18.90;;;14.23;;
22713;SDS011;11524;50.846;4.326;2023-02-15T04:58:13;20.00;;;15.88;;
22713;SDS011;11524;50.846;4.326;2023-02-15T05:00:38;22.88;;;16.20;;
22713;SDS011;11524;50.846;4.326;2023-02-15T05:03:04;20.63;;;16.00;;
22713;SDS011;11524;50.846;4.326;2023-02-15T05:05:29;18.67;;;15.80;;
22713;SDS011;11524;50.846;4.326;2023-02-15T05:07:55;19.52;;;15.23;;
22713;SDS011;11524;50.846;4.326;2023-02-15T05:10:21;24.13;;;16.15;;
22713;SDS011;11524;50.846;4.326;2023-02-15T05:12:47;20.55;;;16.25;;
22713;SDS011;11524;50.846;4.326;2023-02-15T05:15:12;24.13;;;15.95;;
22713;SDS011;11524;50.846;4.326;2023-02-15T05:17:38;25.80;;;15.65;;
22713;SDS011;11524;50.846;4.326;2023-02-15T05:20:04;21.85;;;15.32;;
22713;SDS011;11524;50.846;4.326;2023-02-15T05:22:30;20.65;;;15.10;;
22713;SDS011;11524;50.846;4.326;2023-02-15T05:24:56;18.95;;;15.30;;
22713;SDS011;11524;50.846;4.326;2023-02-15T05:30:24;18.02;;;13.93;;
22713;SDS011;11524;50.846;4.326;2023-02-15T05:32:50;20.50;;;15.02;;
22713;SDS011;11524;50.846;4.326;2023-02-15T05:35:17;23.98;;;16.52;;
22713;SDS011;11524;50.846;4.326;2023-02-15T05:37:43;18.20;;;13.48;;
22713;SDS011;11524;50.846;4.326;2023-02-15T05:40:09;21.83;;;14.20;;
22713;SDS011;11524;50.846;4.326;2023-02-15T05:42:35;19.75;;;15.75;;
22713;SDS011;11524;50.846;4.326;2023-02-15T05:45:00;20.80;;;15.45;;
22713;SDS011;11524;50.846;4.326;2023-02-15T05:47:26;20.33;;;14.60;;
22713;SDS011;11524;50.846;4.326;2023-02-15T05:49:53;22.17;;;15.90;;
22713;SDS011;11524;50.846;4.326;2023-02-15T05:52:20;21.50;;;15.77;;
22713;SDS011;11524;50.846;4.326;2023-02-15T05:54:46;18.73;;;14.65;;
22713;SDS011;11524;50.846;4.326;2023-02-15T05:57:11;20.65;;;15.60;;
22713;SDS011;11524;50.846;4.326;2023-02-15T05:59:37;21.83;;;16.10;;
22713;SDS011;11524;50.846;4.326;2023-02-15T06:02:03;19.60;;;14.57;;
22713;SDS011;11524;50.846;4.326;2023-02-15T06:04:28;20.45;;;14.90;;
22713;SDS011;11524;50.846;4.326;2023-02-15T06:06:54;18.58;;;14.93;;
22713;SDS011;11524;50.846;4.326;2023-02-15T06:09:19;19.70;;;14.50;;
22713;SDS011;11524;50.846;4.326;2023-02-15T06:11:45;20.02;;;15.65;;
22713;SDS011;11524;50.846;4.326;2023-02-15T06:14:10;18.85;;;14.30;;
22713;SDS011;11524;50.846;4.326;2023-02-15T06:16:36;18.88;;;14.88;;
22713;SDS011;11524;50.846;4.326;2023-02-15T06:19:02;18.55;;;14.50;;
22713;SDS011;11524;50.846;4.326;2023-02-15T06:21:48;17.65;;;12.77;;
22713;SDS011;11524;50.846;4.326;2023-02-15T06:24:14;19.10;;;13.68;;
22713;SDS011;11524;50.846;4.326;2023-02-15T06:26:40;17.27;;;14.13;;
22713;SDS011;11524;50.846;4.326;2023-02-15T06:29:06;18.48;;;13.80;;
22713;SDS011;11524;50.846;4.326;2023-02-15T06:31:32;20.75;;;15.32;;
22713;SDS011;11524;50.846;4.326;2023-02-15T06:33:58;19.08;;;13.55;;
22713;SDS011;11524;50.846;4.326;2023-02-15T06:36:27;20.08;;;14.05;;
22713;SDS011;11524;50.846;4.326;2023-02-15T06:38:55;20.90;;;14.25;;
22713;SDS011;11524;50.846;4.326;2023-02-15T06:41:23;22.25;;;15.63;;
22713;SDS011;11524;50.846;4.326;2023-02-15T06:43:57;18.05;;;13.57;;
22713;SDS011;11524;50.846;4.326;2023-02-15T06:46:23;19.67;;;13.68;;
22713;SDS011;11524;50.846;4.326;2023-02-15T06:48:49;20.90;;;15.70;;
22713;SDS011;11524;50.846;4.326;2023-02-15T06:51:18;17.50;;;12.80;;
22713;SDS011;11524;50.846;4.326;2023-02-15T06:53:43;15.13;;;11.93;;
22713;SDS011;11524;50.846;4.326;2023-02-15T06:56:09;22.08;;;16.58;;
22713;SDS011;11524;50.846;4.326;2023-02-15T06:58:36;22.13;;;15.77;;
22713;SDS011;11524;50.846;4.326;2023-02-15T07:01:03;20.15;;;14.50;;
22713;SDS011;11524;50.846;4.326;2023-02-15T07:03:29;21.38;;;15.57;;
22713;SDS011;11524;50.846;4.326;2023-02-15T07:05:55;20.90;;;14.00;;
22713;SDS011;11524;50.846;4.326;2023-02-15T07:08:21;19.80;;;14.20;;
22713;SDS011;11524;50.846;4.326;2023-02-15T07:10:48;20.33;;;15.40;;
22713;SDS011;11524;50.846;4.326;2023-02-15T07:13:14;19.52;;;14.00;;
22713;SDS011;11524;50.846;4.326;2023-02-15T07:15:40;23.38;;;16.10;;
22713;SDS011;11524;50.846;4.326;2023-02-15T07:18:06;19.77;;;15.85;;
22713;SDS011;11524;50.846;4.326;2023-02-15T07:20:31;22.40;;;14.55;;
22713;SDS011;11524;50.846;4.326;2023-02-15T07:23:00;21.08;;;15.45;;
22713;SDS011;11524;50.846;4.326;2023-02-15T07:25:26;21.02;;;14.90;;
22713;SDS011;11524;50.846;4.326;2023-02-15T07:27:59;20.10;;;15.68;;
22713;SDS011;11524;50.846;4.326;2023-02-15T07:30:25;23.10;;;16.50;;
22713;SDS011;11524;50.846;4.326;2023-02-15T07:32:55;25.30;;;17.80;;
22713;SDS011;11524;50.846;4.326;2023-02-15T07:35:49;23.35;;;16.00;;
22713;SDS011;11524;50.846;4.326;2023-02-15T07:38:16;19.88;;;15.00;;
22713;SDS011;11524;50.846;4.326;2023-02-15T07:40:43;20.33;;;14.93;;
22713;SDS011;11524;50.846;4.326;2023-02-15T07:43:09;18.80;;;13.80;;
22713;SDS011;11524;50.846;4.326;2023-02-15T07:45:35;19.67;;;14.45;;
22713;SDS011;11524;50.846;4.326;2023-02-15T07:48:02;22.60;;;15.85;;
22713;SDS011;11524;50.846;4.326;2023-02-15T07:50:28;22.48;;;16.75;;
22713;SDS011;11524;50.846;4.326;2023-02-15T07:52:55;21.23;;;14.75;;
22713;SDS011;11524;50.846;4.326;2023-02-15T07:55:23;22.35;;;14.10;;
22713;SDS011;11524;50.846;4.326;2023-02-15T07:57:50;22.80;;;14.40;;
22713;SDS011;11524;50.846;4.326;2023-02-15T08:00:17;21.63;;;14.88;;
22713;SDS011;11524;50.846;4.326;2023-02-15T08:02:50;23.23;;;14.75;;
22713;SDS011;11524;50.846;4.326;2023-02-15T08:05:36;24.00;;;15.98;;
22713;SDS011;11524;50.846;4.326;2023-02-15T08:08:02;21.27;;;15.57;;
22713;SDS011;11524;50.846;4.326;2023-02-15T08:10:36;19.40;;;14.43;;
22713;SDS011;11524;50.846;4.326;2023-02-15T08:13:47;19.17;;;14.13;;
22713;SDS011;11524;50.846;4.326;2023-02-15T08:16:54;19.20;;;13.55;;
22713;SDS011;11524;50.846;4.326;2023-02-15T08:19:24;21.15;;;13.93;;
22713;SDS011;11524;50.846;4.326;2023-02-15T08:21:53;22.23;;;15.70;;
22713;SDS011;11524;50.846;4.326;2023-02-15T08:24:22;21.33;;;15.00;;
22713;SDS011;11524;50.846;4.326;2023-02-15T08:26:49;18.70;;;14.05;;
22713;SDS011;11524;50.846;4.326;2023-02-15T08:29:16;23.95;;;16.15;;
22713;SDS011;11524;50.846;4.326;2023-02-15T08:31:43;25.48;;;15.52;;
22713;SDS011;11524;50.846;4.326;2023-02-15T08:34:09;21.10;;;15.90;;
22713;SDS011;11524;50.846;4.326;2023-02-15T08:36:38;20.17;;;14.68;;
22713;SDS011;11524;50.846;4.326;2023-02-15T08:39:04;22.98;;;16.00;;
22713;SDS011;11524;50.846;4.326;2023-02-15T08:41:32;20.98;;;14.32;;
22713;SDS011;11524;50.846;4.326;2023-02-15T08:44:00;19.05;;;13.60;;
22713;SDS011;11524;50.846;4.326;2023-02-15T08:46:28;21.75;;;15.23;;
22713;SDS011;11524;50.846;4.326;2023-02-15T08:48:56;20.92;;;15.30;;
22713;SDS011;11524;50.846;4.326;2023-02-15T08:51:23;19.13;;;14.43;;
22713;SDS011;11524;50.846;4.326;2023-02-15T08:53:52;19.58;;;14.20;;
22713;SDS011;11524;50.846;4.326;2023-02-15T08:56:20;22.23;;;15.45;;
22713;SDS011;11524;50.846;4.326;2023-02-15T08:58:47;23.80;;;15.27;;
22713;SDS011;11524;50.846;4.326;2023-02-15T09:01:14;21.02;;;15.57;;
22713;SDS011;11524;50.846;4.326;2023-02-15T09:03:47;20.92;;;14.30;;
22713;SDS011;11524;50.846;4.326;2023-02-15T09:06:15;18.60;;;13.52;;
22713;SDS011;11524;50.846;4.326;2023-02-15T09:08:41;20.17;;;13.57;;
22713;SDS011;11524;50.846;4.326;2023-02-15T09:11:12;18.98;;;13.32;;
22713;SDS011;11524;50.846;4.326;2023-02-15T09:16:08;20.30;;;14.27;;
22713;SDS011;11524;50.846;4.326;2023-02-15T09:18:35;17.67;;;14.10;;
22713;SDS011;11524;50.846;4.326;2023-02-15T09:23:31;17.98;;;13.05;;
22713;SDS011;11524;50.846;4.326;2023-02-15T09:26:00;21.10;;;14.52;;
22713;SDS011;11524;50.846;4.326;2023-02-15T09:28:28;19.83;;;13.85;;
22713;SDS011;11524;50.846;4.326;2023-02-15T09:30:53;21.25;;;14.30;;
22713;SDS011;11524;50.846;4.326;2023-02-15T09:33:20;18.35;;;13.60;;
22713;SDS011;11524;50.846;4.326;2023-02-15T09:35:46;18.15;;;13.52;;
22713;SDS011;11524;50.846;4.326;2023-02-15T09:38:12;16.98;;;13.80;;
22713;SDS011;11524;50.846;4.326;2023-02-15T09:40:41;17.73;;;13.32;;
22713;SDS011;11524;50.846;4.326;2023-02-15T09:43:28;17.45;;;13.45;;
22713;SDS011;11524;50.846;4.326;2023-02-15T09:46:11;19.27;;;13.55;;
22713;SDS011;11524;50.846;4.326;2023-02-15T09:48:52;18.55;;;13.30;;
22713;SDS011;11524;50.846;4.326;2023-02-15T09:54:25;19.48;;;13.93;;
22713;SDS011;11524;50.846;4.326;2023-02-15T09:57:10;20.65;;;15.07;;
22713;SDS011;11524;50.846;4.326;2023-02-15T09:59:58;21.70;;;14.45;;
22713;SDS011;11524;50.846;4.326;2023-02-15T10:25:19;19.30;;;13.75;;
22713;SDS011;11524;50.846;4.326;2023-02-15T10:27:58;19.02;;;13.30;;
22713;SDS011;11524;50.846;4.326;2023-02-15T10:36:22;17.65;;;12.95;;
22713;SDS011;11524;50.846;4.326;2023-02-15T10:39:09;18.23;;;13.35;;
22713;SDS011;11524;50.846;4.326;2023-02-15T10:41:47;18.92;;;13.52;;
22713;SDS011;11524;50.846;4.326;2023-02-15T10:47:30;19.02;;;13.75;;
22713;SDS011;11524;50.846;4.326;2023-02-15T11:07:26;21.23;;;12.95;;
22713;SDS011;11524;50.846;4.326;2023-02-15T11:10:13;18.80;;;12.30;;
22713;SDS011;11524;50.846;4.326;2023-02-15T11:13:04;16.00;;;11.90;;
22713;SDS011;11524;50.846;4.326;2023-02-15T11:18:09;16.95;;;12.23;;
22713;SDS011;11524;50.846;4.326;2023-02-15T11:25:41;18.33;;;12.90;;
22713;SDS011;11524;50.846;4.326;2023-02-15T11:28:11;18.15;;;12.05;;
22713;SDS011;11524;50.846;4.326;2023-02-15T11:30:45;18.40;;;12.65;;
22713;SDS011;11524;50.846;4.326;2023-02-15T11:33:34;16.55;;;12.15;;
22713;SDS011;11524;50.846;4.326;2023-02-15T11:36:21;18.13;;;13.00;;
22713;SDS011;11524;50.846;4.326;2023-02-15T11:38:51;16.27;;;12.80;;
22713;SDS011;11524;50.846;4.326;2023-02-15T11:41:24;14.97;;;11.50;;
22713;SDS011;11524;50.846;4.326;2023-02-15T11:44:06;18.42;;;13.40;;
22713;SDS011;11524;50.846;4.326;2023-02-15T11:46:40;18.08;;;13.10;;
22713;SDS011;11524;50.846;4.326;2023-02-15T11:49:27;16.92;;;12.88;;
22713;SDS011;11524;50.846;4.326;2023-02-15T11:51:56;17.65;;;12.95;;
22713;SDS011;11524;50.846;4.326;2023-02-15T11:54:26;19.25;;;12.98;;
22713;SDS011;11524;50.846;4.326;2023-02-15T11:57:00;20.43;;;14.20;;
22713;SDS011;11524;50.846;4.326;2023-02-15T11:59:44;18.60;;;13.18;;
22713;SDS011;11524;50.846;4.326;2023-02-15T12:02:19;16.65;;;12.55;;
22713;SDS011;11524;50.846;4.326;2023-02-15T12:05:00;14.02;;;10.55;;
22713;SDS011;11524;50.846;4.326;2023-02-15T12:07:34;18.23;;;12.60;;
22713;SDS011;11524;50.846;4.326;2023-02-15T12:12:43;17.52;;;11.95;;
22713;SDS011;11524;50.846;4.326;2023-02-15T12:15:12;20.17;;;13.48;;
22713;SDS011;11524;50.846;4.326;2023-02-15T12:17:48;19.88;;;12.65;;
22713;SDS011;11524;50.846;4.326;2023-02-15T12:20:40;21.40;;;14.65;;
22713;SDS011;11524;50.846;4.326;2023-02-15T12:23:11;22.50;;;15.40;;
22713;SDS011;11524;50.846;4.326;2023-02-15T12:25:51;20.05;;;13.82;;
22713;SDS011;11524;50.846;4.326;2023-02-15T12:30:55;20.58;;;13.45;;
22713;SDS011;11524;50.846;4.326;2023-02-15T12:33:34;18.85;;;13.43;;
22713;SDS011;11524;50.846;4.326;2023-02-15T12:39:09;19.52;;;13.85;;
22713;SDS011;11524;50.846;4.326;2023-02-15T12:41:45;22.70;;;15.05;;
22713;SDS011;11524;50.846;4.326;2023-02-15T12:49:42;17.98;;;12.80;;
22713;SDS011;11524;50.846;4.326;2023-02-15T12:52:29;15.23;;;10.45;;
22713;SDS011;11524;50.846;4.326;2023-02-15T12:54:54;20.85;;;14.32;;
22713;SDS011;11524;50.846;4.326;2023-02-15T12:57:25;19.25;;;13.85;;
22713;SDS011;11524;50.846;4.326;2023-02-15T12:59:58;20.00;;;13.35;;
22713;SDS011;11524;50.846;4.326;2023-02-15T13:02:27;20.02;;;13.85;;
22713;SDS011;11524;50.846;4.326;2023-02-15T13:05:04;23.33;;;14.38;;
22713;SDS011;11524;50.846;4.326;2023-02-15T13:07:33;17.33;;;13.07;;
22713;SDS011;11524;50.846;4.326;2023-02-15T13:09:59;18.52;;;13.45;;
22713;SDS011;11524;50.846;4.326;2023-02-15T13:12:25;17.30;;;12.82;;
22713;SDS011;11524;50.846;4.326;2023-02-15T13:14:55;16.73;;;11.38;;
22713;SDS011;11524;50.846;4.326;2023-02-15T13:17:26;21.13;;;13.95;;
22713;SDS011;11524;50.846;4.326;2023-02-15T13:19:54;18.85;;;13.57;;
22713;SDS011;11524;50.846;4.326;2023-02-15T13:22:42;17.92;;;12.88;;
22713;SDS011;11524;50.846;4.326;2023-02-15T13:25:13;21.25;;;14.40;;
22713;SDS011;11524;50.846;4.326;2023-02-15T13:27:44;17.92;;;12.85;;
22713;SDS011;11524;50.846;4.326;2023-02-15T13:30:20;21.48;;;15.25;;
22713;SDS011;11524;50.846;4.326;2023-02-15T13:33:02;19.35;;;14.68;;
22713;SDS011;11524;50.846;4.326;2023-02-15T13:41:03;21.90;;;14.18;;
22713;SDS011;11524;50.846;4.326;2023-02-15T13:51:57;22.27;;;15.80;;
22713;SDS011;11524;50.846;4.326;2023-02-15T13:54:57;18.27;;;13.32;;
22713;SDS011;11524;50.846;4.326;2023-02-15T13:57:45;20.80;;;15.60;;
22713;SDS011;11524;50.846;4.326;2023-02-15T14:00:32;21.48;;;16.08;;
22713;SDS011;11524;50.846;4.326;2023-02-15T14:15:29;20.65;;;14.30;;
22713;SDS011;11524;50.846;4.326;2023-02-15T14:21:13;22.38;;;15.63;;
22713;SDS011;11524;50.846;4.326;2023-02-15T14:23:57;23.08;;;16.48;;
22713;SDS011;11524;50.846;4.326;2023-02-15T14:29:53;24.35;;;17.05;;
22713;SDS011;11524;50.846;4.326;2023-02-15T14:32:34;22.60;;;14.30;;
22713;SDS011;11524;50.846;4.326;2023-02-15T14:35:12;21.05;;;15.60;;
22713;SDS011;11524;50.846;4.326;2023-02-15T14:56:41;23.08;;;15.43;;
22713;SDS011;11524;50.846;4.326;2023-02-15T14:59:21;25.67;;;16.98;;
22713;SDS011;11524;50.846;4.326;2023-02-15T15:02:00;25.90;;;17.80;;
22713;SDS011;11524;50.846;4.326;2023-02-15T15:04:52;27.20;;;18.15;;
22713;SDS011;11524;50.846;4.326;2023-02-15T15:07:41;30.02;;;20.30;;
22713;SDS011;11524;50.846;4.326;2023-02-15T15:18:07;24.58;;;17.73;;
22713;SDS011;11524;50.846;4.326;2023-02-15T15:20:42;29.95;;;19.83;;
22713;SDS011;11524;50.846;4.326;2023-02-15T15:25:46;25.83;;;18.48;;
22713;SDS011;11524;50.846;4.326;2023-02-15T15:31:38;24.92;;;16.17;;
22713;SDS011;11524;50.846;4.326;2023-02-15T15:34:18;27.60;;;18.05;;
22713;SDS011;11524;50.846;4.326;2023-02-15T15:48:32;25.73;;;18.23;;
22713;SDS011;11524;50.846;4.326;2023-02-15T15:53:45;24.08;;;16.90;;
22713;SDS011;11524;50.846;4.326;2023-02-15T15:56:17;25.40;;;17.05;;
22713;SDS011;11524;50.846;4.326;2023-02-15T15:58:54;23.98;;;16.70;;
22713;SDS011;11524;50.846;4.326;2023-02-15T16:01:27;21.60;;;15.52;;
22713;SDS011;11524;50.846;4.326;2023-02-15T16:03:55;25.05;;;18.05;;
22713;SDS011;11524;50.846;4.326;2023-02-15T16:10:05;24.70;;;16.90;;
22713;SDS011;11524;50.846;4.326;2023-02-15T16:27:44;25.15;;;17.88;;
22713;SDS011;11524;50.846;4.326;2023-02-15T16:36:38;21.08;;;15.23;;
22713;SDS011;11524;50.846;4.326;2023-02-15T16:39:08;27.90;;;16.42;;
22713;SDS011;11524;50.846;4.326;2023-02-15T16:41:44;25.60;;;17.00;;
22713;SDS011;11524;50.846;4.326;2023-02-15T16:44:19;20.35;;;15.23;;
22713;SDS011;11524;50.846;4.326;2023-02-15T16:46:48;21.35;;;15.93;;
22713;SDS011;11524;50.846;4.326;2023-02-15T16:49:21;25.48;;;17.23;;
22713;SDS011;11524;50.846;4.326;2023-02-15T16:51:57;26.38;;;17.85;;
22713;SDS011;11524;50.846;4.326;2023-02-15T16:54:25;27.38;;;18.30;;
22713;SDS011;11524;50.846;4.326;2023-02-15T16:57:18;28.15;;;19.25;;
22713;SDS011;11524;50.846;4.326;2023-02-15T16:59:48;26.20;;;18.60;;
22713;SDS011;11524;50.846;4.326;2023-02-15T17:02:17;27.80;;;17.77;;
22713;SDS011;11524;50.846;4.326;2023-02-15T17:05:13;28.75;;;20.63;;
22713;SDS011;11524;50.846;4.326;2023-02-15T17:07:52;32.72;;;22.83;;
22713;SDS011;11524;50.846;4.326;2023-02-15T17:13:11;37.58;;;22.85;;
22713;SDS011;11524;50.846;4.326;2023-02-15T17:18:26;34.58;;;22.77;;
22713;SDS011;11524;50.846;4.326;2023-02-15T17:20:58;38.42;;;26.25;;
22713;SDS011;11524;50.846;4.326;2023-02-15T17:23:46;37.13;;;23.20;;
22713;SDS011;11524;50.846;4.326;2023-02-15T17:28:54;44.35;;;24.42;;
22713;SDS011;11524;50.846;4.326;2023-02-15T17:31:45;34.10;;;24.20;;
22713;SDS011;11524;50.846;4.326;2023-02-15T17:34:40;34.58;;;24.10;;
22713;SDS011;11524;50.846;4.326;2023-02-15T17:39:49;34.35;;;24.08;;
22713;SDS011;11524;50.846;4.326;2023-02-15T17:42:15;34.30;;;24.88;;
22713;SDS011;11524;50.846;4.326;2023-02-15T17:44:41;35.53;;;24.35;;
22713;SDS011;11524;50.846;4.326;2023-02-15T17:47:06;34.33;;;23.52;;
22713;SDS011;11524;50.846;4.326;2023-02-15T17:49:34;33.90;;;21.45;;
22713;SDS011;11524;50.846;4.326;2023-02-15T17:52:02;36.28;;;24.92;;
22713;SDS011;11524;50.846;4.326;2023-02-15T17:54:33;34.55;;;23.77;;
22713;SDS011;11524;50.846;4.326;2023-02-15T17:57:18;30.30;;;22.70;;
22713;SDS011;11524;50.846;4.326;2023-02-15T17:59:43;31.73;;;22.60;;
22713;SDS011;11524;50.846;4.326;2023-02-15T18:02:29;32.70;;;22.60;;
22713;SDS011;11524;50.846;4.326;2023-02-15T18:05:20;30.98;;;22.50;;
22713;SDS011;11524;50.846;4.326;2023-02-15T18:08:09;32.13;;;23.45;;
22713;SDS011;11524;50.846;4.326;2023-02-15T18:10:54;30.63;;;18.67;;
22713;SDS011;11524;50.846;4.326;2023-02-15T18:13:39;33.22;;;21.52;;
22713;SDS011;11524;50.846;4.326;2023-02-15T18:16:04;30.83;;;20.25;;
22713;SDS011;11524;50.846;4.326;2023-02-15T18:18:30;31.45;;;22.75;;
22713;SDS011;11524;50.846;4.326;2023-02-15T18:20:56;31.90;;;22.73;;
22713;SDS011;11524;50.846;4.326;2023-02-15T18:23:21;31.95;;;22.08;;
22713;SDS011;11524;50.846;4.326;2023-02-15T18:25:47;31.33;;;19.83;;
22713;SDS011;11524;50.846;4.326;2023-02-15T18:28:12;33.05;;;22.25;;
22713;SDS011;11524;50.846;4.326;2023-02-15T18:30:38;28.80;;;20.50;;
22713;SDS011;11524;50.846;4.326;2023-02-15T18:33:14;27.30;;;18.98;;
22713;SDS011;11524;50.846;4.326;2023-02-15T18:35:53;28.90;;;20.27;;